sensor_id;sensor_type;location;lat;lon;timestamp;P1;durP1;ratioP1;P2;durP2;ratioP2
6937;SDS011;40040;42.706;23.372;2022-11-14T00:00:39;44.07;;;17.57;;
6937;SDS011;40040;42.706;23.372;2022-11-14T00:03:08;43.73;;;16.07;;
6937;SDS011;40040;42.706;23.372;2022-11-14T00:05:37;37.90;;;15.63;;
6937;SDS011;40040;42.706;23.372;2022-11-14T00:08:05;40.93;;;17.10;;
6937;SDS011;40040;42.706;23.372;2022-11-14T00:10:32;48.60;;;19.27;;
6937;SDS011;40040;42.706;23.372;2022-11-14T00:12:59;49.40;;;18.87;;
6937;SDS011;40040;42.706;23.372;2022-11-14T00:15:27;53.30;;;21.33;;
6937;SDS011;40040;42.706;23.372;2022-11-14T00:17:54;51.37;;;19.90;;
6937;SDS011;40040;42.706;23.372;2022-11-14T00:20:21;48.27;;;21.80;;
6937;SDS011;40040;42.706;23.372;2022-11-14T00:22:48;52.13;;;20.57;;
6937;SDS011;40040;42.706;23.372;2022-11-14T00:25:16;46.20;;;19.97;;
6937;SDS011;40040;42.706;23.372;2022-11-14T00:27:43;39.50;;;18.83;;
6937;SDS011;40040;42.706;23.372;2022-11-14T00:30:10;39.97;;;18.50;;
6937;SDS011;40040;42.706;23.372;2022-11-14T00:32:38;46.37;;;19.37;;
6937;SDS011;40040;42.706;23.372;2022-11-14T00:35:06;40.47;;;17.10;;
6937;SDS011;40040;42.706;23.372;2022-11-14T00:37:34;41.93;;;17.40;;
6937;SDS011;40040;42.706;23.372;2022-11-14T00:40:01;31.83;;;15.90;;
6937;SDS011;40040;42.706;23.372;2022-11-14T00:42:28;46.50;;;16.57;;
6937;SDS011;40040;42.706;23.372;2022-11-14T00:44:55;35.03;;;15.80;;
6937;SDS011;40040;42.706;23.372;2022-11-14T00:47:22;34.13;;;15.70;;
6937;SDS011;40040;42.706;23.372;2022-11-14T00:49:50;38.17;;;17.57;;
6937;SDS011;40040;42.706;23.372;2022-11-14T00:52:18;45.77;;;18.27;;
6937;SDS011;40040;42.706;23.372;2022-11-14T00:54:44;41.53;;;17.87;;
6937;SDS011;40040;42.706;23.372;2022-11-14T00:57:15;38.73;;;16.27;;
6937;SDS011;40040;42.706;23.372;2022-11-14T00:59:42;42.30;;;17.77;;
6937;SDS011;40040;42.706;23.372;2022-11-14T01:05:49;40.63;;;17.47;;
6937;SDS011;40040;42.706;23.372;2022-11-14T01:08:17;50.93;;;20.87;;
6937;SDS011;40040;42.706;23.372;2022-11-14T01:10:45;51.03;;;19.40;;
6937;SDS011;40040;42.706;23.372;2022-11-14T01:13:14;46.30;;;20.10;;
6937;SDS011;40040;42.706;23.372;2022-11-14T01:15:44;50.30;;;21.97;;
6937;SDS011;40040;42.706;23.372;2022-11-14T01:18:13;52.47;;;20.87;;
6937;SDS011;40040;42.706;23.372;2022-11-14T01:20:44;50.67;;;20.20;;
6937;SDS011;40040;42.706;23.372;2022-11-14T01:23:14;48.63;;;20.10;;
6937;SDS011;40040;42.706;23.372;2022-11-14T01:25:42;50.07;;;22.13;;
6937;SDS011;40040;42.706;23.372;2022-11-14T01:28:10;54.80;;;21.07;;
6937;SDS011;40040;42.706;23.372;2022-11-14T01:30:38;49.47;;;19.63;;
6937;SDS011;40040;42.706;23.372;2022-11-14T01:33:06;45.27;;;17.67;;
6937;SDS011;40040;42.706;23.372;2022-11-14T01:35:35;44.97;;;19.07;;
6937;SDS011;40040;42.706;23.372;2022-11-14T01:38:04;44.77;;;18.27;;
6937;SDS011;40040;42.706;23.372;2022-11-14T01:40:32;50.17;;;19.60;;
6937;SDS011;40040;42.706;23.372;2022-11-14T01:43:10;48.27;;;18.10;;
6937;SDS011;40040;42.706;23.372;2022-11-14T01:45:53;42.60;;;17.50;;
6937;SDS011;40040;42.706;23.372;2022-11-14T01:48:23;43.33;;;16.53;;
6937;SDS011;40040;42.706;23.372;2022-11-14T01:51:04;42.70;;;17.40;;
6937;SDS011;40040;42.706;23.372;2022-11-14T01:53:46;43.80;;;17.60;;
6937;SDS011;40040;42.706;23.372;2022-11-14T01:59:18;44.87;;;16.53;;
6937;SDS011;40040;42.706;23.372;2022-11-14T02:02:34;41.50;;;16.07;;
6937;SDS011;40040;42.706;23.372;2022-11-14T02:05:04;38.20;;;17.27;;
6937;SDS011;40040;42.706;23.372;2022-11-14T02:07:35;42.07;;;16.40;;
6937;SDS011;40040;42.706;23.372;2022-11-14T02:10:05;48.33;;;18.10;;
6937;SDS011;40040;42.706;23.372;2022-11-14T02:12:35;50.03;;;17.57;;
6937;SDS011;40040;42.706;23.372;2022-11-14T02:15:03;46.87;;;17.07;;
6937;SDS011;40040;42.706;23.372;2022-11-14T02:17:31;41.70;;;16.60;;
6937;SDS011;40040;42.706;23.372;2022-11-14T02:22:53;42.67;;;16.60;;
6937;SDS011;40040;42.706;23.372;2022-11-14T02:25:20;35.77;;;17.17;;
6937;SDS011;40040;42.706;23.372;2022-11-14T02:27:47;42.43;;;16.80;;
6937;SDS011;40040;42.706;23.372;2022-11-14T02:30:17;53.50;;;17.30;;
6937;SDS011;40040;42.706;23.372;2022-11-14T02:32:46;34.23;;;17.13;;
6937;SDS011;40040;42.706;23.372;2022-11-14T02:35:13;43.50;;;18.00;;
6937;SDS011;40040;42.706;23.372;2022-11-14T02:37:41;47.40;;;17.47;;
6937;SDS011;40040;42.706;23.372;2022-11-14T02:40:10;47.90;;;18.83;;
6937;SDS011;40040;42.706;23.372;2022-11-14T02:43:10;55.27;;;16.43;;
6937;SDS011;40040;42.706;23.372;2022-11-14T02:45:37;45.13;;;18.70;;
6937;SDS011;40040;42.706;23.372;2022-11-14T02:48:04;43.23;;;19.73;;
6937;SDS011;40040;42.706;23.372;2022-11-14T02:50:31;59.87;;;19.03;;
6937;SDS011;40040;42.706;23.372;2022-11-14T02:53:00;46.83;;;17.37;;
6937;SDS011;40040;42.706;23.372;2022-11-14T02:55:30;34.23;;;16.97;;
6937;SDS011;40040;42.706;23.372;2022-11-14T02:57:57;37.93;;;17.80;;
6937;SDS011;40040;42.706;23.372;2022-11-14T03:00:24;43.07;;;17.40;;
6937;SDS011;40040;42.706;23.372;2022-11-14T03:02:51;53.37;;;17.80;;
6937;SDS011;40040;42.706;23.372;2022-11-14T03:05:18;41.80;;;16.53;;
6937;SDS011;40040;42.706;23.372;2022-11-14T03:07:45;43.43;;;18.00;;
6937;SDS011;40040;42.706;23.372;2022-11-14T03:10:13;49.50;;;18.30;;
6937;SDS011;40040;42.706;23.372;2022-11-14T03:16:37;38.63;;;15.63;;
6937;SDS011;40040;42.706;23.372;2022-11-14T03:23:23;43.13;;;14.93;;
6937;SDS011;40040;42.706;23.372;2022-11-14T03:25:52;43.90;;;16.73;;
6937;SDS011;40040;42.706;23.372;2022-11-14T03:28:19;37.23;;;16.40;;
6937;SDS011;40040;42.706;23.372;2022-11-14T03:30:45;51.00;;;17.33;;
6937;SDS011;40040;42.706;23.372;2022-11-14T03:33:12;41.63;;;17.07;;
6937;SDS011;40040;42.706;23.372;2022-11-14T03:35:40;43.93;;;16.47;;
6937;SDS011;40040;42.706;23.372;2022-11-14T03:38:08;37.00;;;15.63;;
6937;SDS011;40040;42.706;23.372;2022-11-14T03:40:38;37.00;;;16.63;;
6937;SDS011;40040;42.706;23.372;2022-11-14T03:43:06;42.50;;;17.10;;
6937;SDS011;40040;42.706;23.372;2022-11-14T03:48:08;35.60;;;16.40;;
6937;SDS011;40040;42.706;23.372;2022-11-14T03:50:35;38.40;;;16.40;;
6937;SDS011;40040;42.706;23.372;2022-11-14T03:53:02;45.00;;;17.50;;
6937;SDS011;40040;42.706;23.372;2022-11-14T03:58:42;48.43;;;17.17;;
6937;SDS011;40040;42.706;23.372;2022-11-14T04:01:09;41.70;;;16.73;;
6937;SDS011;40040;42.706;23.372;2022-11-14T04:03:35;44.70;;;16.50;;
6937;SDS011;40040;42.706;23.372;2022-11-14T04:06:02;46.70;;;17.57;;
6937;SDS011;40040;42.706;23.372;2022-11-14T04:08:29;45.70;;;16.23;;
6937;SDS011;40040;42.706;23.372;2022-11-14T04:10:56;41.30;;;17.23;;
6937;SDS011;40040;42.706;23.372;2022-11-14T04:13:23;30.53;;;14.17;;
6937;SDS011;40040;42.706;23.372;2022-11-14T04:15:55;29.60;;;13.43;;
6937;SDS011;40040;42.706;23.372;2022-11-14T04:18:23;30.07;;;13.93;;
6937;SDS011;40040;42.706;23.372;2022-11-14T04:20:50;26.10;;;13.00;;
6937;SDS011;40040;42.706;23.372;2022-11-14T04:23:17;34.73;;;12.63;;
6937;SDS011;40040;42.706;23.372;2022-11-14T04:25:45;27.97;;;12.33;;
6937;SDS011;40040;42.706;23.372;2022-11-14T04:28:12;31.23;;;14.13;;
6937;SDS011;40040;42.706;23.372;2022-11-14T04:30:39;35.47;;;13.77;;
6937;SDS011;40040;42.706;23.372;2022-11-14T04:33:08;29.03;;;13.00;;
6937;SDS011;40040;42.706;23.372;2022-11-14T04:35:34;25.87;;;12.80;;
6937;SDS011;40040;42.706;23.372;2022-11-14T04:38:02;31.20;;;12.03;;
6937;SDS011;40040;42.706;23.372;2022-11-14T04:40:29;29.13;;;11.80;;
6937;SDS011;40040;42.706;23.372;2022-11-14T04:42:55;25.03;;;12.10;;
6937;SDS011;40040;42.706;23.372;2022-11-14T04:45:22;23.80;;;12.23;;
6937;SDS011;40040;42.706;23.372;2022-11-14T04:47:49;32.37;;;12.90;;
6937;SDS011;40040;42.706;23.372;2022-11-14T04:50:17;31.13;;;12.17;;
6937;SDS011;40040;42.706;23.372;2022-11-14T04:52:44;26.70;;;12.17;;
6937;SDS011;40040;42.706;23.372;2022-11-14T04:55:11;29.40;;;11.43;;
6937;SDS011;40040;42.706;23.372;2022-11-14T04:57:38;29.93;;;12.23;;
6937;SDS011;40040;42.706;23.372;2022-11-14T05:00:05;39.80;;;11.57;;
6937;SDS011;40040;42.706;23.372;2022-11-14T05:02:33;27.40;;;12.10;;
6937;SDS011;40040;42.706;23.372;2022-11-14T05:05:00;28.13;;;11.97;;
6937;SDS011;40040;42.706;23.372;2022-11-14T05:07:28;29.63;;;12.67;;
6937;SDS011;40040;42.706;23.372;2022-11-14T05:09:55;25.20;;;12.23;;
6937;SDS011;40040;42.706;23.372;2022-11-14T05:12:22;25.33;;;11.47;;
6937;SDS011;40040;42.706;23.372;2022-11-14T05:14:49;28.37;;;12.83;;
6937;SDS011;40040;42.706;23.372;2022-11-14T05:17:16;24.80;;;11.50;;
6937;SDS011;40040;42.706;23.372;2022-11-14T05:19:42;32.73;;;11.50;;
6937;SDS011;40040;42.706;23.372;2022-11-14T05:22:09;22.73;;;11.37;;
6937;SDS011;40040;42.706;23.372;2022-11-14T05:24:38;28.07;;;11.17;;
6937;SDS011;40040;42.706;23.372;2022-11-14T05:27:06;33.17;;;14.70;;
6937;SDS011;40040;42.706;23.372;2022-11-14T05:29:34;27.83;;;12.93;;
6937;SDS011;40040;42.706;23.372;2022-11-14T05:36:14;30.10;;;12.13;;
6937;SDS011;40040;42.706;23.372;2022-11-14T05:38:44;23.37;;;11.97;;
6937;SDS011;40040;42.706;23.372;2022-11-14T05:41:13;19.03;;;9.93;;
6937;SDS011;40040;42.706;23.372;2022-11-14T05:43:41;20.93;;;9.33;;
6937;SDS011;40040;42.706;23.372;2022-11-14T05:46:10;28.03;;;11.23;;
6937;SDS011;40040;42.706;23.372;2022-11-14T05:48:38;30.00;;;12.67;;
6937;SDS011;40040;42.706;23.372;2022-11-14T05:51:06;29.87;;;13.43;;
6937;SDS011;40040;42.706;23.372;2022-11-14T05:53:35;34.57;;;13.40;;
6937;SDS011;40040;42.706;23.372;2022-11-14T05:56:02;39.77;;;18.90;;
6937;SDS011;40040;42.706;23.372;2022-11-14T05:58:32;35.00;;;14.03;;
6937;SDS011;40040;42.706;23.372;2022-11-14T06:01:00;28.93;;;12.10;;
6937;SDS011;40040;42.706;23.372;2022-11-14T06:03:29;23.17;;;11.13;;
6937;SDS011;40040;42.706;23.372;2022-11-14T06:05:58;27.70;;;11.10;;
6937;SDS011;40040;42.706;23.372;2022-11-14T06:08:28;32.80;;;12.77;;
6937;SDS011;40040;42.706;23.372;2022-11-14T06:10:56;29.57;;;11.03;;
6937;SDS011;40040;42.706;23.372;2022-11-14T06:13:27;30.97;;;11.60;;
6937;SDS011;40040;42.706;23.372;2022-11-14T06:15:58;26.10;;;11.67;;
6937;SDS011;40040;42.706;23.372;2022-11-14T06:18:26;31.57;;;14.07;;
6937;SDS011;40040;42.706;23.372;2022-11-14T06:20:53;34.57;;;12.43;;
6937;SDS011;40040;42.706;23.372;2022-11-14T06:23:23;37.13;;;12.43;;
6937;SDS011;40040;42.706;23.372;2022-11-14T06:25:50;27.40;;;13.23;;
6937;SDS011;40040;42.706;23.372;2022-11-14T06:28:17;37.57;;;16.50;;
6937;SDS011;40040;42.706;23.372;2022-11-14T06:30:44;28.20;;;13.87;;
6937;SDS011;40040;42.706;23.372;2022-11-14T06:33:13;38.77;;;16.50;;
6937;SDS011;40040;42.706;23.372;2022-11-14T06:35:39;26.47;;;12.83;;
6937;SDS011;40040;42.706;23.372;2022-11-14T06:38:06;28.77;;;13.90;;
6937;SDS011;40040;42.706;23.372;2022-11-14T06:40:33;59.87;;;24.60;;
6937;SDS011;40040;42.706;23.372;2022-11-14T06:43:00;33.03;;;14.23;;
6937;SDS011;40040;42.706;23.372;2022-11-14T06:45:27;28.57;;;12.37;;
6937;SDS011;40040;42.706;23.372;2022-11-14T06:47:56;151.37;;;61.17;;
6937;SDS011;40040;42.706;23.372;2022-11-14T06:50:25;45.83;;;20.43;;
6937;SDS011;40040;42.706;23.372;2022-11-14T06:52:52;32.07;;;14.60;;
6937;SDS011;40040;42.706;23.372;2022-11-14T06:55:19;73.70;;;31.77;;
6937;SDS011;40040;42.706;23.372;2022-11-14T06:57:51;38.73;;;17.83;;
6937;SDS011;40040;42.706;23.372;2022-11-14T07:00:18;36.13;;;17.27;;
6937;SDS011;40040;42.706;23.372;2022-11-14T07:02:46;26.90;;;12.00;;
6937;SDS011;40040;42.706;23.372;2022-11-14T07:05:13;28.33;;;13.17;;
6937;SDS011;40040;42.706;23.372;2022-11-14T07:07:42;47.63;;;18.50;;
6937;SDS011;40040;42.706;23.372;2022-11-14T07:10:09;49.30;;;22.90;;
6937;SDS011;40040;42.706;23.372;2022-11-14T07:12:36;37.43;;;17.57;;
6937;SDS011;40040;42.706;23.372;2022-11-14T07:15:03;41.97;;;18.93;;
6937;SDS011;40040;42.706;23.372;2022-11-14T07:17:32;38.00;;;16.03;;
6937;SDS011;40040;42.706;23.372;2022-11-14T07:20:00;34.30;;;14.27;;
6937;SDS011;40040;42.706;23.372;2022-11-14T07:22:27;80.93;;;35.20;;
6937;SDS011;40040;42.706;23.372;2022-11-14T07:24:55;42.37;;;17.40;;
6937;SDS011;40040;42.706;23.372;2022-11-14T07:27:22;29.93;;;14.57;;
6937;SDS011;40040;42.706;23.372;2022-11-14T07:29:49;41.10;;;18.67;;
6937;SDS011;40040;42.706;23.372;2022-11-14T07:32:16;107.90;;;45.53;;
6937;SDS011;40040;42.706;23.372;2022-11-14T07:34:43;58.93;;;25.70;;
6937;SDS011;40040;42.706;23.372;2022-11-14T07:37:10;44.80;;;20.17;;
6937;SDS011;40040;42.706;23.372;2022-11-14T07:39:37;61.30;;;27.20;;
6937;SDS011;40040;42.706;23.372;2022-11-14T07:42:06;41.43;;;19.43;;
6937;SDS011;40040;42.706;23.372;2022-11-14T07:44:33;67.90;;;33.77;;
6937;SDS011;40040;42.706;23.372;2022-11-14T07:47:00;38.53;;;19.03;;
6937;SDS011;40040;42.706;23.372;2022-11-14T07:49:27;49.00;;;21.93;;
6937;SDS011;40040;42.706;23.372;2022-11-14T07:51:54;69.83;;;25.83;;
6937;SDS011;40040;42.706;23.372;2022-11-14T07:54:21;55.17;;;20.33;;
6937;SDS011;40040;42.706;23.372;2022-11-14T07:56:48;71.87;;;28.83;;
6937;SDS011;40040;42.706;23.372;2022-11-14T07:59:17;66.53;;;31.97;;
6937;SDS011;40040;42.706;23.372;2022-11-14T08:01:43;49.63;;;21.87;;
6937;SDS011;40040;42.706;23.372;2022-11-14T08:04:11;52.90;;;21.00;;
6937;SDS011;40040;42.706;23.372;2022-11-14T08:06:38;45.83;;;20.07;;
6937;SDS011;40040;42.706;23.372;2022-11-14T08:09:05;49.13;;;22.00;;
6937;SDS011;40040;42.706;23.372;2022-11-14T08:11:32;47.97;;;19.83;;
6937;SDS011;40040;42.706;23.372;2022-11-14T08:14:14;51.17;;;20.33;;
6937;SDS011;40040;42.706;23.372;2022-11-14T08:16:44;50.93;;;20.77;;
6937;SDS011;40040;42.706;23.372;2022-11-14T08:19:10;44.80;;;19.57;;
6937;SDS011;40040;42.706;23.372;2022-11-14T08:21:37;50.80;;;19.90;;
6937;SDS011;40040;42.706;23.372;2022-11-14T08:24:05;47.10;;;20.20;;
6937;SDS011;40040;42.706;23.372;2022-11-14T08:26:32;46.73;;;17.80;;
6937;SDS011;40040;42.706;23.372;2022-11-14T08:28:59;34.20;;;16.83;;
6937;SDS011;40040;42.706;23.372;2022-11-14T08:31:26;37.07;;;17.53;;
6937;SDS011;40040;42.706;23.372;2022-11-14T08:33:55;39.50;;;18.00;;
6937;SDS011;40040;42.706;23.372;2022-11-14T08:36:22;44.10;;;19.53;;
6937;SDS011;40040;42.706;23.372;2022-11-14T08:38:48;59.03;;;24.93;;
6937;SDS011;40040;42.706;23.372;2022-11-14T08:41:15;49.00;;;19.03;;
6937;SDS011;40040;42.706;23.372;2022-11-14T08:43:42;44.47;;;18.77;;
6937;SDS011;40040;42.706;23.372;2022-11-14T08:46:09;44.47;;;19.13;;
6937;SDS011;40040;42.706;23.372;2022-11-14T08:48:36;47.57;;;19.67;;
6937;SDS011;40040;42.706;23.372;2022-11-14T08:51:05;56.37;;;22.90;;
6937;SDS011;40040;42.706;23.372;2022-11-14T08:53:32;46.77;;;20.97;;
6937;SDS011;40040;42.706;23.372;2022-11-14T08:56:00;43.27;;;19.27;;
6937;SDS011;40040;42.706;23.372;2022-11-14T08:58:27;45.13;;;20.43;;
6937;SDS011;40040;42.706;23.372;2022-11-14T09:00:58;46.83;;;20.97;;
6937;SDS011;40040;42.706;23.372;2022-11-14T09:03:26;48.40;;;20.57;;
6937;SDS011;40040;42.706;23.372;2022-11-14T09:05:53;40.37;;;18.10;;
6937;SDS011;40040;42.706;23.372;2022-11-14T09:08:21;41.73;;;17.77;;
6937;SDS011;40040;42.706;23.372;2022-11-14T09:10:49;49.50;;;19.80;;
6937;SDS011;40040;42.706;23.372;2022-11-14T09:13:16;42.27;;;19.17;;
6937;SDS011;40040;42.706;23.372;2022-11-14T09:15:43;47.80;;;20.30;;
6937;SDS011;40040;42.706;23.372;2022-11-14T09:18:10;47.20;;;20.97;;
6937;SDS011;40040;42.706;23.372;2022-11-14T09:20:39;47.40;;;19.47;;
6937;SDS011;40040;42.706;23.372;2022-11-14T09:23:06;52.93;;;22.60;;
6937;SDS011;40040;42.706;23.372;2022-11-14T09:25:36;52.40;;;21.43;;
6937;SDS011;40040;42.706;23.372;2022-11-14T09:28:03;54.40;;;22.80;;
6937;SDS011;40040;42.706;23.372;2022-11-14T09:30:31;46.27;;;19.50;;
6937;SDS011;40040;42.706;23.372;2022-11-14T09:32:59;44.50;;;19.80;;
6937;SDS011;40040;42.706;23.372;2022-11-14T09:35:27;46.63;;;19.93;;
6937;SDS011;40040;42.706;23.372;2022-11-14T09:38:00;38.23;;;16.73;;
6937;SDS011;40040;42.706;23.372;2022-11-14T09:40:28;39.17;;;16.93;;
6937;SDS011;40040;42.706;23.372;2022-11-14T09:43:12;49.40;;;20.20;;
6937;SDS011;40040;42.706;23.372;2022-11-14T09:46:00;48.83;;;20.77;;
6937;SDS011;40040;42.706;23.372;2022-11-14T09:48:28;45.40;;;19.20;;
6937;SDS011;40040;42.706;23.372;2022-11-14T09:51:02;47.37;;;19.83;;
6937;SDS011;40040;42.706;23.372;2022-11-14T09:53:33;45.07;;;19.33;;
6937;SDS011;40040;42.706;23.372;2022-11-14T09:56:07;52.73;;;21.87;;
6937;SDS011;40040;42.706;23.372;2022-11-14T09:58:39;53.90;;;23.13;;
6937;SDS011;40040;42.706;23.372;2022-11-14T10:01:07;53.73;;;23.57;;
6937;SDS011;40040;42.706;23.372;2022-11-14T10:03:44;60.33;;;26.43;;
6937;SDS011;40040;42.706;23.372;2022-11-14T10:06:19;77.63;;;35.80;;
6937;SDS011;40040;42.706;23.372;2022-11-14T10:09:09;54.27;;;24.47;;
6937;SDS011;40040;42.706;23.372;2022-11-14T10:12:01;55.87;;;22.90;;
6937;SDS011;40040;42.706;23.372;2022-11-14T10:17:54;68.30;;;29.83;;
6937;SDS011;40040;42.706;23.372;2022-11-14T10:20:29;54.00;;;21.73;;
6937;SDS011;40040;42.706;23.372;2022-11-14T10:23:04;45.67;;;21.13;;
6937;SDS011;40040;42.706;23.372;2022-11-14T10:25:42;48.57;;;20.10;;
6937;SDS011;40040;42.706;23.372;2022-11-14T10:28:29;46.70;;;21.17;;
6937;SDS011;40040;42.706;23.372;2022-11-14T10:31:04;50.87;;;22.17;;
6937;SDS011;40040;42.706;23.372;2022-11-14T10:33:45;54.60;;;22.93;;
6937;SDS011;40040;42.706;23.372;2022-11-14T10:36:18;61.77;;;25.80;;
6937;SDS011;40040;42.706;23.372;2022-11-14T10:38:55;65.97;;;26.47;;
6937;SDS011;40040;42.706;23.372;2022-11-14T10:41:29;79.83;;;31.13;;
6937;SDS011;40040;42.706;23.372;2022-11-14T10:43:56;60.00;;;25.30;;
6937;SDS011;40040;42.706;23.372;2022-11-14T10:46:25;54.77;;;23.80;;
6937;SDS011;40040;42.706;23.372;2022-11-14T10:48:56;56.33;;;25.07;;
6937;SDS011;40040;42.706;23.372;2022-11-14T10:51:26;52.17;;;25.77;;
6937;SDS011;40040;42.706;23.372;2022-11-14T10:54:00;54.70;;;25.15;;
6937;SDS011;40040;42.706;23.372;2022-11-14T10:56:32;49.70;;;24.70;;
6937;SDS011;40040;42.706;23.372;2022-11-14T10:58:59;55.50;;;26.13;;
6937;SDS011;40040;42.706;23.372;2022-11-14T11:01:33;50.33;;;22.25;;
6937;SDS011;40040;42.706;23.372;2022-11-14T11:06:51;42.15;;;22.70;;
6937;SDS011;40040;42.706;23.372;2022-11-14T11:09:20;42.33;;;20.02;;
6937;SDS011;40040;42.706;23.372;2022-11-14T11:12:06;48.78;;;21.85;;
6937;SDS011;40040;42.706;23.372;2022-11-14T11:14:34;42.58;;;20.25;;
6937;SDS011;40040;42.706;23.372;2022-11-14T11:19:51;39.95;;;21.30;;
6937;SDS011;40040;42.706;23.372;2022-11-14T11:22:26;41.25;;;20.55;;
6937;SDS011;40040;42.706;23.372;2022-11-14T11:24:54;39.97;;;21.30;;
6937;SDS011;40040;42.706;23.372;2022-11-14T11:27:23;47.15;;;22.52;;
6937;SDS011;40040;42.706;23.372;2022-11-14T11:30:05;41.85;;;21.52;;
6937;SDS011;40040;42.706;23.372;2022-11-14T11:32:42;45.50;;;21.90;;
6937;SDS011;40040;42.706;23.372;2022-11-14T11:35:12;48.10;;;22.98;;
6937;SDS011;40040;42.706;23.372;2022-11-14T11:37:41;42.55;;;22.48;;
6937;SDS011;40040;42.706;23.372;2022-11-14T11:40:18;41.63;;;23.23;;
6937;SDS011;40040;42.706;23.372;2022-11-14T11:42:49;46.55;;;23.58;;
6937;SDS011;40040;42.706;23.372;2022-11-14T11:45:22;48.97;;;24.65;;
6937;SDS011;40040;42.706;23.372;2022-11-14T11:47:52;51.20;;;24.52;;
6937;SDS011;40040;42.706;23.372;2022-11-14T11:50:27;51.60;;;25.67;;
6937;SDS011;40040;42.706;23.372;2022-11-14T11:52:58;49.42;;;25.58;;
6937;SDS011;40040;42.706;23.372;2022-11-14T11:55:33;48.53;;;25.33;;
6937;SDS011;40040;42.706;23.372;2022-11-14T11:58:05;49.47;;;25.33;;
6937;SDS011;40040;42.706;23.372;2022-11-14T12:00:41;48.90;;;25.30;;
6937;SDS011;40040;42.706;23.372;2022-11-14T12:03:08;53.22;;;26.73;;
6937;SDS011;40040;42.706;23.372;2022-11-14T12:05:45;49.60;;;25.30;;
6937;SDS011;40040;42.706;23.372;2022-11-14T12:08:20;53.55;;;26.83;;
6937;SDS011;40040;42.706;23.372;2022-11-14T12:10:54;47.38;;;23.80;;
6937;SDS011;40040;42.706;23.372;2022-11-14T12:16:36;48.40;;;25.27;;
6937;SDS011;40040;42.706;23.372;2022-11-14T12:19:30;48.22;;;24.42;;
6937;SDS011;40040;42.706;23.372;2022-11-14T12:22:26;47.05;;;25.45;;
6937;SDS011;40040;42.706;23.372;2022-11-14T12:25:17;50.63;;;25.88;;
6937;SDS011;40040;42.706;23.372;2022-11-14T12:28:04;48.35;;;26.05;;
6937;SDS011;40040;42.706;23.372;2022-11-14T12:30:44;50.72;;;25.67;;
6937;SDS011;40040;42.706;23.372;2022-11-14T12:33:16;47.42;;;25.35;;
6937;SDS011;40040;42.706;23.372;2022-11-14T12:35:49;48.88;;;25.40;;
6937;SDS011;40040;42.706;23.372;2022-11-14T12:38:20;47.05;;;25.77;;
6937;SDS011;40040;42.706;23.372;2022-11-14T12:40:49;48.70;;;25.05;;
6937;SDS011;40040;42.706;23.372;2022-11-14T12:43:24;50.50;;;26.27;;
6937;SDS011;40040;42.706;23.372;2022-11-14T12:45:59;47.00;;;25.48;;
6937;SDS011;40040;42.706;23.372;2022-11-14T12:48:34;50.65;;;25.52;;
6937;SDS011;40040;42.706;23.372;2022-11-14T12:51:04;49.00;;;25.58;;
6937;SDS011;40040;42.706;23.372;2022-11-14T12:53:53;49.25;;;24.73;;
6937;SDS011;40040;42.706;23.372;2022-11-14T13:02:18;48.92;;;25.55;;
6937;SDS011;40040;42.706;23.372;2022-11-14T13:08:06;51.50;;;25.55;;
6937;SDS011;40040;42.706;23.372;2022-11-14T13:10:46;60.00;;;28.05;;
6937;SDS011;40040;42.706;23.372;2022-11-14T13:13:13;54.75;;;27.50;;
6937;SDS011;40040;42.706;23.372;2022-11-14T13:15:59;54.45;;;26.52;;
6937;SDS011;40040;42.706;23.372;2022-11-14T13:18:49;55.80;;;27.67;;
6937;SDS011;40040;42.706;23.372;2022-11-14T13:21:35;55.58;;;27.38;;
6937;SDS011;40040;42.706;23.372;2022-11-14T13:24:12;55.40;;;27.42;;
6937;SDS011;40040;42.706;23.372;2022-11-14T13:26:46;60.55;;;28.50;;
6937;SDS011;40040;42.706;23.372;2022-11-14T13:35:36;55.17;;;28.38;;
6937;SDS011;40040;42.706;23.372;2022-11-14T13:38:21;59.75;;;29.85;;
6937;SDS011;40040;42.706;23.372;2022-11-14T13:41:20;53.13;;;27.83;;
6937;SDS011;40040;42.706;23.372;2022-11-14T13:44:12;52.83;;;27.05;;
6937;SDS011;40040;42.706;23.372;2022-11-14T13:49:54;55.58;;;28.35;;
6937;SDS011;40040;42.706;23.372;2022-11-14T13:52:27;54.15;;;28.35;;
6937;SDS011;40040;42.706;23.372;2022-11-14T13:54:55;57.55;;;29.52;;
6937;SDS011;40040;42.706;23.372;2022-11-14T13:57:26;54.80;;;28.75;;
6937;SDS011;40040;42.706;23.372;2022-11-14T14:00:04;55.53;;;28.90;;
6937;SDS011;40040;42.706;23.372;2022-11-14T14:02:50;58.70;;;28.30;;
6937;SDS011;40040;42.706;23.372;2022-11-14T14:05:31;56.85;;;29.45;;
6937;SDS011;40040;42.706;23.372;2022-11-14T14:11:06;57.03;;;28.30;;
6937;SDS011;40040;42.706;23.372;2022-11-14T14:13:53;56.72;;;28.58;;
6937;SDS011;40040;42.706;23.372;2022-11-14T14:16:30;54.97;;;28.05;;
6937;SDS011;40040;42.706;23.372;2022-11-14T14:19:04;59.53;;;27.58;;
6937;SDS011;40040;42.706;23.372;2022-11-14T14:21:38;55.28;;;26.90;;
6937;SDS011;40040;42.706;23.372;2022-11-14T14:24:16;51.40;;;26.55;;
6937;SDS011;40040;42.706;23.372;2022-11-14T14:26:59;56.10;;;26.33;;
6937;SDS011;40040;42.706;23.372;2022-11-14T14:29:35;54.72;;;25.88;;
6937;SDS011;40040;42.706;23.372;2022-11-14T14:32:12;50.63;;;25.65;;
6937;SDS011;40040;42.706;23.372;2022-11-14T14:34:40;52.60;;;25.95;;
6937;SDS011;40040;42.706;23.372;2022-11-14T14:37:13;50.83;;;25.38;;
6937;SDS011;40040;42.706;23.372;2022-11-14T14:39:54;50.67;;;25.88;;
6937;SDS011;40040;42.706;23.372;2022-11-14T14:42:23;52.10;;;27.55;;
6937;SDS011;40040;42.706;23.372;2022-11-14T14:44:50;65.45;;;29.20;;
6937;SDS011;40040;42.706;23.372;2022-11-14T14:47:26;56.60;;;26.92;;
6937;SDS011;40040;42.706;23.372;2022-11-14T14:49:59;53.58;;;26.90;;
6937;SDS011;40040;42.706;23.372;2022-11-14T14:52:28;58.00;;;25.88;;
6937;SDS011;40040;42.706;23.372;2022-11-14T14:54:56;55.58;;;27.48;;
6937;SDS011;40040;42.706;23.372;2022-11-14T14:57:26;52.00;;;25.63;;
6937;SDS011;40040;42.706;23.372;2022-11-14T14:59:57;61.50;;;27.58;;
6937;SDS011;40040;42.706;23.372;2022-11-14T15:02:26;72.10;;;28.02;;
6937;SDS011;40040;42.706;23.372;2022-11-14T15:04:54;65.38;;;28.58;;
6937;SDS011;40040;42.706;23.372;2022-11-14T15:07:22;62.65;;;28.90;;
6937;SDS011;40040;42.706;23.372;2022-11-14T15:09:51;59.20;;;28.27;;
6937;SDS011;40040;42.706;23.372;2022-11-14T15:12:20;64.88;;;28.90;;
6937;SDS011;40040;42.706;23.372;2022-11-14T15:14:48;66.22;;;30.98;;
6937;SDS011;40040;42.706;23.372;2022-11-14T15:17:17;56.30;;;28.23;;
6937;SDS011;40040;42.706;23.372;2022-11-14T15:19:46;60.90;;;29.40;;
6937;SDS011;40040;42.706;23.372;2022-11-14T15:22:23;57.45;;;29.23;;
6937;SDS011;40040;42.706;23.372;2022-11-14T15:25:15;70.15;;;32.15;;
6937;SDS011;40040;42.706;23.372;2022-11-14T15:27:45;69.43;;;31.48;;
6937;SDS011;40040;42.706;23.372;2022-11-14T15:30:21;83.38;;;34.35;;
6937;SDS011;40040;42.706;23.372;2022-11-14T15:32:50;134.93;;;49.03;;
6937;SDS011;40040;42.706;23.372;2022-11-14T15:35:28;98.72;;;40.35;;
6937;SDS011;40040;42.706;23.372;2022-11-14T15:38:04;104.20;;;41.85;;
6937;SDS011;40040;42.706;23.372;2022-11-14T15:40:32;164.93;;;61.55;;
6937;SDS011;40040;42.706;23.372;2022-11-14T15:46:02;144.77;;;61.28;;